sensor_id;sensor_type;location;lat;lon;timestamp;temperature;humidity
2913;DHT22;1466;48.778;9.166;2022-12-20T00:01:22;8.10;99.90
2913;DHT22;1466;48.778;9.166;2022-12-20T00:03:49;8.00;99.90
2913;DHT22;1466;48.778;9.166;2022-12-20T00:06:16;7.90;99.90
2913;DHT22;1466;48.778;9.166;2022-12-20T00:08:41;7.80;99.90
2913;DHT22;1466;48.778;9.166;2022-12-20T00:11:09;7.70;99.90
2913;DHT22;1466;48.778;9.166;2022-12-20T00:13:36;7.70;99.90
2913;DHT22;1466;48.778;9.166;2022-12-20T00:16:22;7.70;99.90
2913;DHT22;1466;48.778;9.166;2022-12-20T00:19:00;7.80;99.90
2913;DHT22;1466;48.778;9.166;2022-12-20T00:21:27;7.80;99.90
2913;DHT22;1466;48.778;9.166;2022-12-20T00:23:53;7.80;99.90
2913;DHT22;1466;48.778;9.166;2022-12-20T00:26:22;7.80;99.90
2913;DHT22;1466;48.778;9.166;2022-12-20T00:28:47;7.80;99.90
2913;DHT22;1466;48.778;9.166;2022-12-20T00:31:16;7.70;99.90
2913;DHT22;1466;48.778;9.166;2022-12-20T00:33:45;7.60;99.90
2913;DHT22;1466;48.778;9.166;2022-12-20T00:36:11;7.50;99.90
2913;DHT22;1466;48.778;9.166;2022-12-20T00:38:37;7.40;99.90
2913;DHT22;1466;48.778;9.166;2022-12-20T00:41:08;7.40;99.90
2913;DHT22;1466;48.778;9.166;2022-12-20T00:43:35;7.30;99.90
2913;DHT22;1466;48.778;9.166;2022-12-20T00:46:01;7.10;99.90
2913;DHT22;1466;48.778;9.166;2022-12-20T00:48:27;7.10;99.90
2913;DHT22;1466;48.778;9.166;2022-12-20T00:51:08;7.00;99.90
2913;DHT22;1466;48.778;9.166;2022-12-20T00:53:35;6.90;99.90
2913;DHT22;1466;48.778;9.166;2022-12-20T00:56:02;6.90;99.90
2913;DHT22;1466;48.778;9.166;2022-12-20T00:58:28;6.80;99.90
2913;DHT22;1466;48.778;9.166;2022-12-20T01:00:54;6.80;99.90
2913;DHT22;1466;48.778;9.166;2022-12-20T01:03:20;6.90;99.90
2913;DHT22;1466;48.778;9.166;2022-12-20T01:05:53;6.90;99.90
2913;DHT22;1466;48.778;9.166;2022-12-20T01:08:19;6.90;99.90
2913;DHT22;1466;48.778;9.166;2022-12-20T01:10:45;6.90;99.90
2913;DHT22;1466;48.778;9.166;2022-12-20T01:13:10;6.90;99.90
2913;DHT22;1466;48.778;9.166;2022-12-20T01:15:36;6.90;99.90
2913;DHT22;1466;48.778;9.166;2022-12-20T01:18:02;6.90;99.90
2913;DHT22;1466;48.778;9.166;2022-12-20T01:20:27;7.00;99.90
2913;DHT22;1466;48.778;9.166;2022-12-20T01:22:53;7.10;99.90
2913;DHT22;1466;48.778;9.166;2022-12-20T01:25:19;7.00;99.90
2913;DHT22;1466;48.778;9.166;2022-12-20T01:27:44;7.00;99.90
2913;DHT22;1466;48.778;9.166;2022-12-20T01:30:11;7.00;99.90
2913;DHT22;1466;48.778;9.166;2022-12-20T01:32:36;6.90;99.90
2913;DHT22;1466;48.778;9.166;2022-12-20T01:35:02;6.90;99.90
2913;DHT22;1466;48.778;9.166;2022-12-20T01:37:27;7.00;99.90
2913;DHT22;1466;48.778;9.166;2022-12-20T01:39:53;7.00;99.90
2913;DHT22;1466;48.778;9.166;2022-12-20T01:42:19;7.00;99.90
2913;DHT22;1466;48.778;9.166;2022-12-20T01:47:11;6.90;99.90
2913;DHT22;1466;48.778;9.166;2022-12-20T01:49:41;6.80;99.90
2913;DHT22;1466;48.778;9.166;2022-12-20T01:52:13;6.80;99.90
2913;DHT22;1466;48.778;9.166;2022-12-20T01:54:50;6.70;99.90
2913;DHT22;1466;48.778;9.166;2022-12-20T01:57:23;6.80;99.90
2913;DHT22;1466;48.778;9.166;2022-12-20T01:59:51;6.70;99.90
2913;DHT22;1466;48.778;9.166;2022-12-20T02:02:17;6.70;99.90
2913;DHT22;1466;48.778;9.166;2022-12-20T02:04:42;6.70;99.90
2913;DHT22;1466;48.778;9.166;2022-12-20T02:07:11;6.80;99.90
2913;DHT22;1466;48.778;9.166;2022-12-20T02:09:38;6.80;99.90
2913;DHT22;1466;48.778;9.166;2022-12-20T02:12:25;6.70;99.90
2913;DHT22;1466;48.778;9.166;2022-12-20T02:15:12;6.80;99.90
2913;DHT22;1466;48.778;9.166;2022-12-20T02:23:45;6.80;99.90
2913;DHT22;1466;48.778;9.166;2022-12-20T02:26:55;6.90;99.90
2913;DHT22;1466;48.778;9.166;2022-12-20T02:34:58;6.80;99.90
2913;DHT22;1466;48.778;9.166;2022-12-20T02:37:24;6.80;99.90
2913;DHT22;1466;48.778;9.166;2022-12-20T02:39:49;6.80;99.90
2913;DHT22;1466;48.778;9.166;2022-12-20T02:42:20;6.80;99.90
2913;DHT22;1466;48.778;9.166;2022-12-20T02:45:00;6.80;99.90
2913;DHT22;1466;48.778;9.166;2022-12-20T02:47:48;6.80;99.90
2913;DHT22;1466;48.778;9.166;2022-12-20T02:50:17;6.70;99.90
2913;DHT22;1466;48.778;9.166;2022-12-20T02:52:44;6.70;99.90
2913;DHT22;1466;48.778;9.166;2022-12-20T02:55:10;6.70;99.90
2913;DHT22;1466;48.778;9.166;2022-12-20T02:57:57;6.70;99.90
2913;DHT22;1466;48.778;9.166;2022-12-20T03:00:24;6.70;99.90
2913;DHT22;1466;48.778;9.166;2022-12-20T03:02:51;6.70;99.90
2913;DHT22;1466;48.778;9.166;2022-12-20T03:05:43;6.70;99.90
2913;DHT22;1466;48.778;9.166;2022-12-20T03:08:09;6.70;99.90
2913;DHT22;1466;48.778;9.166;2022-12-20T03:10:36;6.70;99.90
2913;DHT22;1466;48.778;9.166;2022-12-20T03:13:01;6.80;99.90
2913;DHT22;1466;48.778;9.166;2022-12-20T03:15:27;6.80;99.90
2913;DHT22;1466;48.778;9.166;2022-12-20T03:17:52;6.80;99.90
2913;DHT22;1466;48.778;9.166;2022-12-20T03:20:18;6.80;99.90
2913;DHT22;1466;48.778;9.166;2022-12-20T03:22:43;6.80;99.90
2913;DHT22;1466;48.778;9.166;2022-12-20T03:25:09;6.90;99.90
2913;DHT22;1466;48.778;9.166;2022-12-20T03:27:35;6.90;99.90
2913;DHT22;1466;48.778;9.166;2022-12-20T03:30:00;6.90;99.90
2913;DHT22;1466;48.778;9.166;2022-12-20T03:32:26;7.00;99.90
2913;DHT22;1466;48.778;9.166;2022-12-20T03:34:52;7.00;99.90
2913;DHT22;1466;48.778;9.166;2022-12-20T03:37:17;7.10;99.90
2913;DHT22;1466;48.778;9.166;2022-12-20T03:39:43;7.10;99.90
2913;DHT22;1466;48.778;9.166;2022-12-20T03:42:08;7.10;99.90
2913;DHT22;1466;48.778;9.166;2022-12-20T03:44:34;7.10;99.90
2913;DHT22;1466;48.778;9.166;2022-12-20T03:46:59;7.20;99.90
2913;DHT22;1466;48.778;9.166;2022-12-20T03:49:25;7.20;99.90
2913;DHT22;1466;48.778;9.166;2022-12-20T03:51:51;7.20;99.90
2913;DHT22;1466;48.778;9.166;2022-12-20T03:54:17;7.30;99.90
2913;DHT22;1466;48.778;9.166;2022-12-20T03:56:42;7.20;99.90
2913;DHT22;1466;48.778;9.166;2022-12-20T03:59:08;7.20;99.90
2913;DHT22;1466;48.778;9.166;2022-12-20T04:01:33;7.20;99.90
2913;DHT22;1466;48.778;9.166;2022-12-20T04:04:03;7.20;99.90
2913;DHT22;1466;48.778;9.166;2022-12-20T04:06:28;7.10;99.90
2913;DHT22;1466;48.778;9.166;2022-12-20T04:08:54;7.10;99.90
2913;DHT22;1466;48.778;9.166;2022-12-20T04:11:20;7.00;99.90
2913;DHT22;1466;48.778;9.166;2022-12-20T04:13:48;7.00;99.90
2913;DHT22;1466;48.778;9.166;2022-12-20T04:16:15;7.00;99.90
2913;DHT22;1466;48.778;9.166;2022-12-20T04:18:41;7.00;99.90
2913;DHT22;1466;48.778;9.166;2022-12-20T04:21:08;7.00;99.90
2913;DHT22;1466;48.778;9.166;2022-12-20T04:23:35;7.00;99.90
2913;DHT22;1466;48.778;9.166;2022-12-20T04:26:02;6.90;99.90
2913;DHT22;1466;48.778;9.166;2022-12-20T04:28:28;6.90;99.90
2913;DHT22;1466;48.778;9.166;2022-12-20T04:30:54;6.90;99.90
2913;DHT22;1466;48.778;9.166;2022-12-20T04:33:21;6.90;99.90
2913;DHT22;1466;48.778;9.166;2022-12-20T04:35:46;7.00;99.90
2913;DHT22;1466;48.778;9.166;2022-12-20T04:38:12;7.00;99.90
2913;DHT22;1466;48.778;9.166;2022-12-20T04:40:37;7.00;99.90
2913;DHT22;1466;48.778;9.166;2022-12-20T04:43:03;7.00;99.90
2913;DHT22;1466;48.778;9.166;2022-12-20T04:45:28;7.00;99.90
2913;DHT22;1466;48.778;9.166;2022-12-20T04:47:54;7.00;99.90
2913;DHT22;1466;48.778;9.166;2022-12-20T04:50:20;7.00;99.90
2913;DHT22;1466;48.778;9.166;2022-12-20T04:52:45;7.00;99.90
2913;DHT22;1466;48.778;9.166;2022-12-20T04:55:30;6.90;99.90
2913;DHT22;1466;48.778;9.166;2022-12-20T04:57:56;6.80;99.90
2913;DHT22;1466;48.778;9.166;2022-12-20T05:00:21;6.80;99.90
2913;DHT22;1466;48.778;9.166;2022-12-20T05:02:47;6.80;99.90
2913;DHT22;1466;48.778;9.166;2022-12-20T05:05:12;6.80;99.90
2913;DHT22;1466;48.778;9.166;2022-12-20T05:07:38;6.80;99.90
2913;DHT22;1466;48.778;9.166;2022-12-20T05:10:04;6.90;99.90
2913;DHT22;1466;48.778;9.166;2022-12-20T05:12:30;7.00;99.90
2913;DHT22;1466;48.778;9.166;2022-12-20T05:14:55;7.00;99.90
2913;DHT22;1466;48.778;9.166;2022-12-20T05:17:21;7.10;99.90
2913;DHT22;1466;48.778;9.166;2022-12-20T05:19:47;7.10;99.90
2913;DHT22;1466;48.778;9.166;2022-12-20T05:22:12;7.20;99.90
2913;DHT22;1466;48.778;9.166;2022-12-20T05:24:56;7.20;99.90
2913;DHT22;1466;48.778;9.166;2022-12-20T05:27:40;7.30;99.90
2913;DHT22;1466;48.778;9.166;2022-12-20T05:30:07;7.30;99.90
2913;DHT22;1466;48.778;9.166;2022-12-20T05:32:33;7.30;99.90
2913;DHT22;1466;48.778;9.166;2022-12-20T05:34:59;7.30;99.90
2913;DHT22;1466;48.778;9.166;2022-12-20T05:37:24;7.30;99.90
2913;DHT22;1466;48.778;9.166;2022-12-20T05:39:50;7.30;99.90
2913;DHT22;1466;48.778;9.166;2022-12-20T05:42:15;7.30;99.90
2913;DHT22;1466;48.778;9.166;2022-12-20T05:44:41;7.30;99.90
2913;DHT22;1466;48.778;9.166;2022-12-20T05:47:06;7.30;99.90
2913;DHT22;1466;48.778;9.166;2022-12-20T05:49:32;7.30;99.90
2913;DHT22;1466;48.778;9.166;2022-12-20T05:51:59;7.40;99.90
2913;DHT22;1466;48.778;9.166;2022-12-20T05:54:25;7.40;99.90
2913;DHT22;1466;48.778;9.166;2022-12-20T05:56:50;7.40;99.90
2913;DHT22;1466;48.778;9.166;2022-12-20T05:59:16;7.40;99.90
2913;DHT22;1466;48.778;9.166;2022-12-20T06:01:42;7.50;99.90
2913;DHT22;1466;48.778;9.166;2022-12-20T06:04:08;7.40;99.90
2913;DHT22;1466;48.778;9.166;2022-12-20T06:06:33;7.40;99.90
2913;DHT22;1466;48.778;9.166;2022-12-20T06:08:59;7.40;99.90
2913;DHT22;1466;48.778;9.166;2022-12-20T06:11:25;7.30;99.90
2913;DHT22;1466;48.778;9.166;2022-12-20T06:13:51;7.30;99.90
2913;DHT22;1466;48.778;9.166;2022-12-20T06:16:17;7.30;99.90
2913;DHT22;1466;48.778;9.166;2022-12-20T06:18:45;7.30;99.90
2913;DHT22;1466;48.778;9.166;2022-12-20T06:21:10;7.30;99.90
2913;DHT22;1466;48.778;9.166;2022-12-20T06:23:36;7.30;99.90
2913;DHT22;1466;48.778;9.166;2022-12-20T06:26:02;7.30;99.90
2913;DHT22;1466;48.778;9.166;2022-12-20T06:28:29;7.40;99.90
2913;DHT22;1466;48.778;9.166;2022-12-20T06:30:56;7.40;99.90
2913;DHT22;1466;48.778;9.166;2022-12-20T06:33:22;7.50;99.90
2913;DHT22;1466;48.778;9.166;2022-12-20T06:35:50;7.60;99.90
2913;DHT22;1466;48.778;9.166;2022-12-20T06:38:16;7.60;99.90
2913;DHT22;1466;48.778;9.166;2022-12-20T06:40:42;7.70;99.90
2913;DHT22;1466;48.778;9.166;2022-12-20T06:43:08;7.70;99.90
2913;DHT22;1466;48.778;9.166;2022-12-20T06:45:33;7.80;99.90
2913;DHT22;1466;48.778;9.166;2022-12-20T06:47:59;7.80;99.90
2913;DHT22;1466;48.778;9.166;2022-12-20T06:50:24;7.90;99.90
2913;DHT22;1466;48.778;9.166;2022-12-20T06:52:51;7.90;99.90
2913;DHT22;1466;48.778;9.166;2022-12-20T06:55:16;8.00;99.90
2913;DHT22;1466;48.778;9.166;2022-12-20T06:57:42;8.00;99.90
2913;DHT22;1466;48.778;9.166;2022-12-20T07:00:08;8.00;99.90
2913;DHT22;1466;48.778;9.166;2022-12-20T07:02:37;7.90;99.90
2913;DHT22;1466;48.778;9.166;2022-12-20T07:05:03;7.90;99.90
2913;DHT22;1466;48.778;9.166;2022-12-20T07:07:28;7.90;99.90
2913;DHT22;1466;48.778;9.166;2022-12-20T07:09:54;7.90;99.90
2913;DHT22;1466;48.778;9.166;2022-12-20T07:12:19;7.90;99.90
2913;DHT22;1466;48.778;9.166;2022-12-20T07:14:45;8.00;99.90
2913;DHT22;1466;48.778;9.166;2022-12-20T07:17:11;8.00;99.90
2913;DHT22;1466;48.778;9.166;2022-12-20T07:19:37;8.10;99.90
2913;DHT22;1466;48.778;9.166;2022-12-20T07:22:03;8.10;99.90
2913;DHT22;1466;48.778;9.166;2022-12-20T07:24:29;8.20;99.90
2913;DHT22;1466;48.778;9.166;2022-12-20T07:26:55;8.10;99.90
2913;DHT22;1466;48.778;9.166;2022-12-20T07:29:21;8.10;99.90
2913;DHT22;1466;48.778;9.166;2022-12-20T07:31:46;8.10;99.90
2913;DHT22;1466;48.778;9.166;2022-12-20T07:34:12;8.10;99.90
2913;DHT22;1466;48.778;9.166;2022-12-20T07:36:37;8.10;99.90
2913;DHT22;1466;48.778;9.166;2022-12-20T07:39:03;8.10;99.90
2913;DHT22;1466;48.778;9.166;2022-12-20T07:41:28;8.10;99.90
2913;DHT22;1466;48.778;9.166;2022-12-20T07:43:54;8.00;99.90
2913;DHT22;1466;48.778;9.166;2022-12-20T07:46:20;8.10;99.90
2913;DHT22;1466;48.778;9.166;2022-12-20T07:48:46;8.00;99.90
2913;DHT22;1466;48.778;9.166;2022-12-20T07:51:15;8.00;99.90
2913;DHT22;1466;48.778;9.166;2022-12-20T07:53:47;8.00;99.90
2913;DHT22;1466;48.778;9.166;2022-12-20T07:56:14;8.00;99.90
2913;DHT22;1466;48.778;9.166;2022-12-20T07:58:41;8.00;99.90
2913;DHT22;1466;48.778;9.166;2022-12-20T08:01:09;8.00;99.90
2913;DHT22;1466;48.778;9.166;2022-12-20T08:03:42;8.10;99.90
2913;DHT22;1466;48.778;9.166;2022-12-20T08:06:09;8.10;99.90
2913;DHT22;1466;48.778;9.166;2022-12-20T08:08:38;8.10;99.90
2913;DHT22;1466;48.778;9.166;2022-12-20T08:11:06;8.20;99.90
2913;DHT22;1466;48.778;9.166;2022-12-20T08:13:32;8.20;99.90
2913;DHT22;1466;48.778;9.166;2022-12-20T08:15:58;8.30;99.90
2913;DHT22;1466;48.778;9.166;2022-12-20T08:18:24;8.40;99.90
2913;DHT22;1466;48.778;9.166;2022-12-20T08:20:50;8.40;99.90
2913;DHT22;1466;48.778;9.166;2022-12-20T08:23:17;8.50;99.90
2913;DHT22;1466;48.778;9.166;2022-12-20T08:25:44;8.50;99.90
2913;DHT22;1466;48.778;9.166;2022-12-20T08:28:09;8.60;99.90
2913;DHT22;1466;48.778;9.166;2022-12-20T08:30:35;8.70;99.90
2913;DHT22;1466;48.778;9.166;2022-12-20T08:33:01;8.80;99.90
2913;DHT22;1466;48.778;9.166;2022-12-20T08:35:27;8.90;99.90
2913;DHT22;1466;48.778;9.166;2022-12-20T08:37:52;8.90;99.90
2913;DHT22;1466;48.778;9.166;2022-12-20T08:40:19;9.00;99.90
2913;DHT22;1466;48.778;9.166;2022-12-20T08:42:45;9.10;99.90
2913;DHT22;1466;48.778;9.166;2022-12-20T08:45:10;9.10;99.90
2913;DHT22;1466;48.778;9.166;2022-12-20T08:47:36;9.20;99.90
2913;DHT22;1466;48.778;9.166;2022-12-20T08:50:03;9.20;99.90
2913;DHT22;1466;48.778;9.166;2022-12-20T08:52:28;9.20;99.90
2913;DHT22;1466;48.778;9.166;2022-12-20T08:54:54;9.30;99.90
2913;DHT22;1466;48.778;9.166;2022-12-20T08:57:19;9.40;99.90
2913;DHT22;1466;48.778;9.166;2022-12-20T08:59:45;9.40;99.90
2913;DHT22;1466;48.778;9.166;2022-12-20T09:02:11;9.50;99.90
2913;DHT22;1466;48.778;9.166;2022-12-20T09:04:36;9.60;99.90
2913;DHT22;1466;48.778;9.166;2022-12-20T09:07:02;9.70;99.90
2913;DHT22;1466;48.778;9.166;2022-12-20T09:09:28;9.70;99.90
2913;DHT22;1466;48.778;9.166;2022-12-20T09:11:53;9.80;99.90
2913;DHT22;1466;48.778;9.166;2022-12-20T09:14:20;9.80;99.90
2913;DHT22;1466;48.778;9.166;2022-12-20T09:16:45;9.80;99.90
2913;DHT22;1466;48.778;9.166;2022-12-20T09:19:12;9.70;99.90
2913;DHT22;1466;48.778;9.166;2022-12-20T09:21:38;9.70;99.90
2913;DHT22;1466;48.778;9.166;2022-12-20T09:24:04;9.70;99.90
2913;DHT22;1466;48.778;9.166;2022-12-20T09:26:30;9.80;99.90
2913;DHT22;1466;48.778;9.166;2022-12-20T09:28:57;9.80;99.90
2913;DHT22;1466;48.778;9.166;2022-12-20T09:31:24;9.80;99.90
2913;DHT22;1466;48.778;9.166;2022-12-20T09:33:58;9.90;99.90
2913;DHT22;1466;48.778;9.166;2022-12-20T09:36:25;9.90;99.90
2913;DHT22;1466;48.778;9.166;2022-12-20T09:38:51;9.90;99.90
2913;DHT22;1466;48.778;9.166;2022-12-20T09:43:50;9.90;99.90
2913;DHT22;1466;48.778;9.166;2022-12-20T09:46:16;9.90;99.90
2913;DHT22;1466;48.778;9.166;2022-12-20T09:48:42;9.90;99.90
2913;DHT22;1466;48.778;9.166;2022-12-20T09:56:09;10.00;99.90
2913;DHT22;1466;48.778;9.166;2022-12-20T10:01:26;10.10;99.90
2913;DHT22;1466;48.778;9.166;2022-12-20T10:03:53;10.20;99.90
2913;DHT22;1466;48.778;9.166;2022-12-20T10:12:20;10.30;99.90
2913;DHT22;1466;48.778;9.166;2022-12-20T10:17:15;10.30;99.90
2913;DHT22;1466;48.778;9.166;2022-12-20T10:22:56;10.40;99.90
2913;DHT22;1466;48.778;9.166;2022-12-20T10:25:30;10.30;99.90
2913;DHT22;1466;48.778;9.166;2022-12-20T10:27:57;10.30;99.90
2913;DHT22;1466;48.778;9.166;2022-12-20T10:30:26;10.40;99.90
2913;DHT22;1466;48.778;9.166;2022-12-20T10:32:54;10.40;99.90
2913;DHT22;1466;48.778;9.166;2022-12-20T10:38:11;10.50;99.90
2913;DHT22;1466;48.778;9.166;2022-12-20T10:41:00;10.50;99.90
2913;DHT22;1466;48.778;9.166;2022-12-20T10:43:27;10.50;99.90
2913;DHT22;1466;48.778;9.166;2022-12-20T10:46:03;10.50;99.90
2913;DHT22;1466;48.778;9.166;2022-12-20T10:48:35;10.50;99.90
2913;DHT22;1466;48.778;9.166;2022-12-20T10:56:28;10.50;99.90
2913;DHT22;1466;48.778;9.166;2022-12-20T11:01:30;10.60;99.90
2913;DHT22;1466;48.778;9.166;2022-12-20T11:06:38;10.60;99.90
2913;DHT22;1466;48.778;9.166;2022-12-20T11:12:08;10.60;99.90
2913;DHT22;1466;48.778;9.166;2022-12-20T11:14:36;10.70;99.90
2913;DHT22;1466;48.778;9.166;2022-12-20T11:17:50;10.70;99.90
2913;DHT22;1466;48.778;9.166;2022-12-20T11:20:20;10.70;99.90
2913;DHT22;1466;48.778;9.166;2022-12-20T11:41:58;11.20;99.90
2913;DHT22;1466;48.778;9.166;2022-12-20T11:52:57;11.20;99.90
2913;DHT22;1466;48.778;9.166;2022-12-20T11:55:36;11.20;99.90
2913;DHT22;1466;48.778;9.166;2022-12-20T12:00:40;11.20;99.90
2913;DHT22;1466;48.778;9.166;2022-12-20T12:03:31;11.30;99.90
2913;DHT22;1466;48.778;9.166;2022-12-20T12:06:09;11.30;99.90
2913;DHT22;1466;48.778;9.166;2022-12-20T12:08:53;11.30;99.90
2913;DHT22;1466;48.778;9.166;2022-12-20T12:11:25;11.30;99.90
2913;DHT22;1466;48.778;9.166;2022-12-20T12:13:52;11.30;99.90
2913;DHT22;1466;48.778;9.166;2022-12-20T12:16:38;11.30;99.90
2913;DHT22;1466;48.778;9.166;2022-12-20T12:19:08;11.30;99.90
2913;DHT22;1466;48.778;9.166;2022-12-20T12:22:00;11.30;99.90
2913;DHT22;1466;48.778;9.166;2022-12-20T12:24:42;11.30;99.90
2913;DHT22;1466;48.778;9.166;2022-12-20T12:27:19;11.30;99.90
2913;DHT22;1466;48.778;9.166;2022-12-20T12:29:45;11.30;99.90
2913;DHT22;1466;48.778;9.166;2022-12-20T12:32:38;11.20;99.90
2913;DHT22;1466;48.778;9.166;2022-12-20T12:37:53;11.20;99.90
2913;DHT22;1466;48.778;9.166;2022-12-20T12:40:44;11.20;99.90
2913;DHT22;1466;48.778;9.166;2022-12-20T12:46:12;11.30;99.90
2913;DHT22;1466;48.778;9.166;2022-12-20T12:48:55;11.30;99.90
2913;DHT22;1466;48.778;9.166;2022-12-20T12:51:34;11.40;99.90
2913;DHT22;1466;48.778;9.166;2022-12-20T12:54:17;11.40;99.90
2913;DHT22;1466;48.778;9.166;2022-12-20T12:56:47;11.40;99.90
2913;DHT22;1466;48.778;9.166;2022-12-20T12:59:40;11.50;99.90
2913;DHT22;1466;48.778;9.166;2022-12-20T13:09:50;11.50;99.90
2913;DHT22;1466;48.778;9.166;2022-12-20T13:12:46;11.50;99.90
2913;DHT22;1466;48.778;9.166;2022-12-20T13:17:57;11.50;99.90
2913;DHT22;1466;48.778;9.166;2022-12-20T13:20:34;11.50;99.90
2913;DHT22;1466;48.778;9.166;2022-12-20T13:25:45;11.50;99.90
2913;DHT22;1466;48.778;9.166;2022-12-20T13:30:43;11.50;99.90
2913;DHT22;1466;48.778;9.166;2022-12-20T13:35:56;11.50;99.90
2913;DHT22;1466;48.778;9.166;2022-12-20T13:43:56;11.50;99.90
2913;DHT22;1466;48.778;9.166;2022-12-20T13:49:10;11.40;99.90
2913;DHT22;1466;48.778;9.166;2022-12-20T13:51:36;11.50;99.90
2913;DHT22;1466;48.778;9.166;2022-12-20T13:54:05;11.50;99.90
2913;DHT22;1466;48.778;9.166;2022-12-20T13:59:07;11.40;99.90
2913;DHT22;1466;48.778;9.166;2022-12-20T14:01:50;11.40;99.90
2913;DHT22;1466;48.778;9.166;2022-12-20T14:04:17;11.40;99.90
2913;DHT22;1466;48.778;9.166;2022-12-20T14:06:53;11.40;99.90
2913;DHT22;1466;48.778;9.166;2022-12-20T14:09:37;11.40;99.90
2913;DHT22;1466;48.778;9.166;2022-12-20T14:12:16;11.50;99.90
2913;DHT22;1466;48.778;9.166;2022-12-20T14:14:46;11.40;99.90
2913;DHT22;1466;48.778;9.166;2022-12-20T14:17:28;11.50;99.90
2913;DHT22;1466;48.778;9.166;2022-12-20T14:20:05;11.50;99.90
2913;DHT22;1466;48.778;9.166;2022-12-20T14:22:33;11.50;99.90
2913;DHT22;1466;48.778;9.166;2022-12-20T14:25:01;11.50;99.90
2913;DHT22;1466;48.778;9.166;2022-12-20T14:27:32;11.50;99.90
2913;DHT22;1466;48.778;9.166;2022-12-20T14:29:58;11.50;99.90
2913;DHT22;1466;48.778;9.166;2022-12-20T14:32:24;11.50;99.90
2913;DHT22;1466;48.778;9.166;2022-12-20T14:34:51;11.50;99.90
2913;DHT22;1466;48.778;9.166;2022-12-20T14:37:33;11.50;99.90
2913;DHT22;1466;48.778;9.166;2022-12-20T14:42:37;11.50;99.90
2913;DHT22;1466;48.778;9.166;2022-12-20T14:47:32;11.20;99.90
2913;DHT22;1466;48.778;9.166;2022-12-20T14:50:03;11.10;99.90
2913;DHT22;1466;48.778;9.166;2022-12-20T14:52:35;11.00;99.90
2913;DHT22;1466;48.778;9.166;2022-12-20T15:02:47;10.90;99.90
2913;DHT22;1466;48.778;9.166;2022-12-20T15:08:22;10.80;99.90
2913;DHT22;1466;48.778;9.166;2022-12-20T15:11:11;10.70;99.90
2913;DHT22;1466;48.778;9.166;2022-12-20T15:13:43;10.70;99.90
2913;DHT22;1466;48.778;9.166;2022-12-20T15:16:19;10.70;99.90
2913;DHT22;1466;48.778;9.166;2022-12-20T15:18:46;10.60;99.90
2913;DHT22;1466;48.778;9.166;2022-12-20T15:23:51;10.60;99.90
2913;DHT22;1466;48.778;9.166;2022-12-20T15:26:19;10.60;99.90
2913;DHT22;1466;48.778;9.166;2022-12-20T15:28:45;10.60;99.90
2913;DHT22;1466;48.778;9.166;2022-12-20T15:31:12;10.60;99.90
2913;DHT22;1466;48.778;9.166;2022-12-20T15:33:40;10.70;99.90
2913;DHT22;1466;48.778;9.166;2022-12-20T15:36:06;10.70;99.90
2913;DHT22;1466;48.778;9.166;2022-12-20T15:38:37;10.70;99.90
2913;DHT22;1466;48.778;9.166;2022-12-20T15:41:05;10.70;99.90
2913;DHT22;1466;48.778;9.166;2022-12-20T15:43:35;10.70;99.90
2913;DHT22;1466;48.778;9.166;2022-12-20T15:46:02;10.70;99.90
2913;DHT22;1466;48.778;9.166;2022-12-20T15:48:27;10.70;99.90
2913;DHT22;1466;48.778;9.166;2022-12-20T15:50:56;10.80;99.90
2913;DHT22;1466;48.778;9.166;2022-12-20T15:53:25;10.80;99.90
2913;DHT22;1466;48.778;9.166;2022-12-20T15:55:53;10.80;99.90
2913;DHT22;1466;48.778;9.166;2022-12-20T15:58:20;10.80;99.90
2913;DHT22;1466;48.778;9.166;2022-12-20T16:00:46;10.80;99.90
2913;DHT22;1466;48.778;9.166;2022-12-20T16:03:14;10.80;99.90
2913;DHT22;1466;48.778;9.166;2022-12-20T16:05:41;10.70;99.90
2913;DHT22;1466;48.778;9.166;2022-12-20T16:08:07;10.70;99.90
2913;DHT22;1466;48.778;9.166;2022-12-20T16:10:32;10.60;99.90
2913;DHT22;1466;48.778;9.166;2022-12-20T16:12:58;10.60;99.90
2913;DHT22;1466;48.778;9.166;2022-12-20T16:15:24;10.60;99.90
2913;DHT22;1466;48.778;9.166;2022-12-20T16:17:50;10.60;99.90
2913;DHT22;1466;48.778;9.166;2022-12-20T16:20:16;10.70;99.90
2913;DHT22;1466;48.778;9.166;2022-12-20T16:22:41;10.70;99.90
2913;DHT22;1466;48.778;9.166;2022-12-20T16:25:22;10.80;99.90
2913;DHT22;1466;48.778;9.166;2022-12-20T16:27:48;10.80;99.90
2913;DHT22;1466;48.778;9.166;2022-12-20T16:30:13;10.80;99.90
2913;DHT22;1466;48.778;9.166;2022-12-20T16:32:39;10.80;99.90
2913;DHT22;1466;48.778;9.166;2022-12-20T16:35:05;10.80;99.90
2913;DHT22;1466;48.778;9.166;2022-12-20T16:37:31;10.90;99.90
2913;DHT22;1466;48.778;9.166;2022-12-20T16:39:56;10.90;99.90
2913;DHT22;1466;48.778;9.166;2022-12-20T16:42:22;11.00;99.90
2913;DHT22;1466;48.778;9.166;2022-12-20T16:44:51;11.00;99.90
2913;DHT22;1466;48.778;9.166;2022-12-20T16:47:17;10.90;99.90
2913;DHT22;1466;48.778;9.166;2022-12-20T16:49:43;10.80;99.90
2913;DHT22;1466;48.778;9.166;2022-12-20T16:52:15;10.80;99.90
2913;DHT22;1466;48.778;9.166;2022-12-20T16:54:42;10.70;99.90
2913;DHT22;1466;48.778;9.166;2022-12-20T16:57:08;10.60;99.90
2913;DHT22;1466;48.778;9.166;2022-12-20T16:59:34;10.50;99.90
2913;DHT22;1466;48.778;9.166;2022-12-20T17:02:00;10.50;99.90
2913;DHT22;1466;48.778;9.166;2022-12-20T17:04:26;10.50;99.90
2913;DHT22;1466;48.778;9.166;2022-12-20T17:06:51;10.40;99.90
2913;DHT22;1466;48.778;9.166;2022-12-20T17:09:18;10.40;99.90
2913;DHT22;1466;48.778;9.166;2022-12-20T17:11:47;10.50;99.90
2913;DHT22;1466;48.778;9.166;2022-12-20T17:14:14;10.60;99.90
2913;DHT22;1466;48.778;9.166;2022-12-20T17:16:40;10.60;99.90
2913;DHT22;1466;48.778;9.166;2022-12-20T17:19:06;10.70;99.90
2913;DHT22;1466;48.778;9.166;2022-12-20T17:21:41;10.80;99.90
2913;DHT22;1466;48.778;9.166;2022-12-20T17:24:25;10.90;99.90
2913;DHT22;1466;48.778;9.166;2022-12-20T17:26:51;11.00;99.90
2913;DHT22;1466;48.778;9.166;2022-12-20T17:29:16;11.00;99.90
2913;DHT22;1466;48.778;9.166;2022-12-20T17:31:44;11.00;99.90
2913;DHT22;1466;48.778;9.166;2022-12-20T17:34:25;11.00;99.90
2913;DHT22;1466;48.778;9.166;2022-12-20T17:36:53;11.10;99.90
2913;DHT22;1466;48.778;9.166;2022-12-20T17:39:19;11.10;99.90
2913;DHT22;1466;48.778;9.166;2022-12-20T17:41:46;11.20;99.90
2913;DHT22;1466;48.778;9.166;2022-12-20T17:44:24;11.20;99.90
2913;DHT22;1466;48.778;9.166;2022-12-20T17:46:50;11.20;99.90
2913;DHT22;1466;48.778;9.166;2022-12-20T17:49:16;11.20;99.90
2913;DHT22;1466;48.778;9.166;2022-12-20T17:51:44;11.30;99.90
2913;DHT22;1466;48.778;9.166;2022-12-20T17:54:25;11.30;99.90
2913;DHT22;1466;48.778;9.166;2022-12-20T17:56:52;11.30;99.90
2913;DHT22;1466;48.778;9.166;2022-12-20T17:59:23;11.30;99.90
2913;DHT22;1466;48.778;9.166;2022-12-20T18:01:50;11.30;99.90
2913;DHT22;1466;48.778;9.166;2022-12-20T18:04:16;11.30;99.90
2913;DHT22;1466;48.778;9.166;2022-12-20T18:06:43;11.30;99.90
2913;DHT22;1466;48.778;9.166;2022-12-20T18:09:16;11.30;99.90
2913;DHT22;1466;48.778;9.166;2022-12-20T18:11:45;11.30;99.90
2913;DHT22;1466;48.778;9.166;2022-12-20T18:14:11;11.30;99.90
2913;DHT22;1466;48.778;9.166;2022-12-20T18:16:37;11.30;99.90
2913;DHT22;1466;48.778;9.166;2022-12-20T18:19:04;11.30;99.90
2913;DHT22;1466;48.778;9.166;2022-12-20T18:21:29;11.30;99.90
2913;DHT22;1466;48.778;9.166;2022-12-20T18:23:55;11.30;99.90
2913;DHT22;1466;48.778;9.166;2022-12-20T18:26:27;11.30;99.90
2913;DHT22;1466;48.778;9.166;2022-12-20T18:28:55;11.30;99.90
2913;DHT22;1466;48.778;9.166;2022-12-20T18:31:23;11.30;99.90
2913;DHT22;1466;48.778;9.166;2022-12-20T18:33:49;11.20;99.90
2913;DHT22;1466;48.778;9.166;2022-12-20T18:36:17;11.20;99.90
2913;DHT22;1466;48.778;9.166;2022-12-20T18:38:45;11.20;99.90